sensor_id;sensor_type;location;lat;lon;timestamp;P1;durP1;ratioP1;P2;durP2;ratioP2
22256;SDS011;11297;42.686;23.374;2023-02-15T00:01:16;39.30;;;27.23;;
22256;SDS011;11297;42.686;23.374;2023-02-15T00:03:41;40.23;;;28.00;;
22256;SDS011;11297;42.686;23.374;2023-02-15T00:06:07;42.10;;;29.07;;
22256;SDS011;11297;42.686;23.374;2023-02-15T00:08:32;41.37;;;27.90;;
22256;SDS011;11297;42.686;23.374;2023-02-15T00:11:05;44.83;;;27.37;;
22256;SDS011;11297;42.686;23.374;2023-02-15T00:13:35;41.30;;;27.80;;
22256;SDS011;11297;42.686;23.374;2023-02-15T00:16:09;40.40;;;26.97;;
22256;SDS011;11297;42.686;23.374;2023-02-15T00:18:35;43.83;;;27.30;;
22256;SDS011;11297;42.686;23.374;2023-02-15T00:21:05;42.87;;;28.63;;
22256;SDS011;11297;42.686;23.374;2023-02-15T00:23:31;37.13;;;26.47;;
22256;SDS011;11297;42.686;23.374;2023-02-15T00:26:04;39.70;;;26.10;;
22256;SDS011;11297;42.686;23.374;2023-02-15T00:28:33;40.70;;;27.03;;
22256;SDS011;11297;42.686;23.374;2023-02-15T00:31:05;41.83;;;28.70;;
22256;SDS011;11297;42.686;23.374;2023-02-15T00:33:33;39.23;;;27.87;;
22256;SDS011;11297;42.686;23.374;2023-02-15T00:35:59;39.77;;;26.13;;
22256;SDS011;11297;42.686;23.374;2023-02-15T00:38:28;38.07;;;27.20;;
22256;SDS011;11297;42.686;23.374;2023-02-15T00:40:55;39.73;;;28.43;;
22256;SDS011;11297;42.686;23.374;2023-02-15T00:43:22;39.07;;;27.87;;
22256;SDS011;11297;42.686;23.374;2023-02-15T00:45:48;42.23;;;28.70;;
22256;SDS011;11297;42.686;23.374;2023-02-15T00:48:14;39.13;;;28.57;;
22256;SDS011;11297;42.686;23.374;2023-02-15T00:50:39;37.83;;;28.67;;
22256;SDS011;11297;42.686;23.374;2023-02-15T00:53:05;38.30;;;26.43;;
22256;SDS011;11297;42.686;23.374;2023-02-15T00:55:30;39.23;;;28.20;;
22256;SDS011;11297;42.686;23.374;2023-02-15T00:57:56;35.67;;;26.30;;
22256;SDS011;11297;42.686;23.374;2023-02-15T01:00:21;35.60;;;26.37;;
22256;SDS011;11297;42.686;23.374;2023-02-15T01:02:46;39.90;;;28.73;;
22256;SDS011;11297;42.686;23.374;2023-02-15T01:05:12;36.67;;;26.90;;
22256;SDS011;11297;42.686;23.374;2023-02-15T01:07:37;37.27;;;27.03;;
22256;SDS011;11297;42.686;23.374;2023-02-15T01:10:04;36.93;;;26.60;;
22256;SDS011;11297;42.686;23.374;2023-02-15T01:12:30;35.27;;;27.17;;
22256;SDS011;11297;42.686;23.374;2023-02-15T01:14:56;39.67;;;27.70;;
22256;SDS011;11297;42.686;23.374;2023-02-15T01:17:21;37.70;;;26.93;;
22256;SDS011;11297;42.686;23.374;2023-02-15T01:19:46;36.67;;;27.07;;
22256;SDS011;11297;42.686;23.374;2023-02-15T01:22:12;32.70;;;24.07;;
22256;SDS011;11297;42.686;23.374;2023-02-15T01:24:37;32.60;;;25.00;;
22256;SDS011;11297;42.686;23.374;2023-02-15T01:27:02;36.83;;;25.53;;
22256;SDS011;11297;42.686;23.374;2023-02-15T01:29:28;35.43;;;25.23;;
22256;SDS011;11297;42.686;23.374;2023-02-15T01:31:53;35.00;;;25.53;;
22256;SDS011;11297;42.686;23.374;2023-02-15T01:34:18;36.90;;;26.40;;
22256;SDS011;11297;42.686;23.374;2023-02-15T01:36:44;39.30;;;26.80;;
22256;SDS011;11297;42.686;23.374;2023-02-15T01:39:09;35.57;;;24.73;;
22256;SDS011;11297;42.686;23.374;2023-02-15T01:41:35;35.97;;;26.53;;
22256;SDS011;11297;42.686;23.374;2023-02-15T01:44:01;38.27;;;26.83;;
22256;SDS011;11297;42.686;23.374;2023-02-15T01:49:05;34.03;;;25.20;;
22256;SDS011;11297;42.686;23.374;2023-02-15T01:51:39;36.37;;;25.17;;
22256;SDS011;11297;42.686;23.374;2023-02-15T01:54:27;38.57;;;26.27;;
22256;SDS011;11297;42.686;23.374;2023-02-15T01:56:59;36.83;;;25.77;;
22256;SDS011;11297;42.686;23.374;2023-02-15T01:59:28;38.40;;;26.47;;
22256;SDS011;11297;42.686;23.374;2023-02-15T02:01:56;33.67;;;25.97;;
22256;SDS011;11297;42.686;23.374;2023-02-15T02:04:31;37.60;;;25.87;;
22256;SDS011;11297;42.686;23.374;2023-02-15T02:07:04;32.80;;;23.97;;
22256;SDS011;11297;42.686;23.374;2023-02-15T02:09:31;32.93;;;24.73;;
22256;SDS011;11297;42.686;23.374;2023-02-15T02:11:57;36.33;;;25.50;;
22256;SDS011;11297;42.686;23.374;2023-02-15T02:14:23;35.40;;;26.07;;
22256;SDS011;11297;42.686;23.374;2023-02-15T02:16:52;33.13;;;24.90;;
22256;SDS011;11297;42.686;23.374;2023-02-15T02:22:28;34.37;;;25.47;;
22256;SDS011;11297;42.686;23.374;2023-02-15T02:42:06;34.70;;;25.70;;
22256;SDS011;11297;42.686;23.374;2023-02-15T02:44:43;35.60;;;26.00;;
22256;SDS011;11297;42.686;23.374;2023-02-15T02:47:14;35.20;;;26.07;;
22256;SDS011;11297;42.686;23.374;2023-02-15T02:50:09;33.80;;;23.60;;
22256;SDS011;11297;42.686;23.374;2023-02-15T02:52:46;32.50;;;24.70;;
22256;SDS011;11297;42.686;23.374;2023-02-15T02:55:17;34.00;;;24.13;;
22256;SDS011;11297;42.686;23.374;2023-02-15T03:01:18;31.53;;;23.93;;
22256;SDS011;11297;42.686;23.374;2023-02-15T03:06:38;32.80;;;23.30;;
22256;SDS011;11297;42.686;23.374;2023-02-15T03:09:22;33.80;;;24.53;;
22256;SDS011;11297;42.686;23.374;2023-02-15T03:11:59;37.30;;;25.67;;
22256;SDS011;11297;42.686;23.374;2023-02-15T03:14:26;36.10;;;24.53;;
22256;SDS011;11297;42.686;23.374;2023-02-15T03:16:52;31.23;;;22.90;;
22256;SDS011;11297;42.686;23.374;2023-02-15T03:19:32;33.33;;;24.37;;
22256;SDS011;11297;42.686;23.374;2023-02-15T03:22:03;32.73;;;23.13;;
22256;SDS011;11297;42.686;23.374;2023-02-15T03:24:54;30.47;;;22.10;;
22256;SDS011;11297;42.686;23.374;2023-02-15T03:27:25;34.57;;;24.77;;
22256;SDS011;11297;42.686;23.374;2023-02-15T03:29:56;35.00;;;24.33;;
22256;SDS011;11297;42.686;23.374;2023-02-15T03:32:24;31.63;;;23.87;;
22256;SDS011;11297;42.686;23.374;2023-02-15T03:34:53;31.67;;;24.67;;
22256;SDS011;11297;42.686;23.374;2023-02-15T03:37:26;33.77;;;23.17;;
22256;SDS011;11297;42.686;23.374;2023-02-15T03:39:57;32.13;;;23.10;;
22256;SDS011;11297;42.686;23.374;2023-02-15T03:42:46;30.10;;;22.77;;
22256;SDS011;11297;42.686;23.374;2023-02-15T03:45:17;32.03;;;23.97;;
22256;SDS011;11297;42.686;23.374;2023-02-15T03:47:50;31.50;;;24.13;;
22256;SDS011;11297;42.686;23.374;2023-02-15T03:50:21;30.07;;;22.60;;
22256;SDS011;11297;42.686;23.374;2023-02-15T03:53:09;32.60;;;22.30;;
22256;SDS011;11297;42.686;23.374;2023-02-15T03:55:38;32.53;;;22.70;;
22256;SDS011;11297;42.686;23.374;2023-02-15T03:58:03;32.67;;;23.37;;
22256;SDS011;11297;42.686;23.374;2023-02-15T04:01:32;31.47;;;22.83;;
22256;SDS011;11297;42.686;23.374;2023-02-15T04:04:05;30.87;;;22.80;;
22256;SDS011;11297;42.686;23.374;2023-02-15T04:06:34;32.70;;;23.70;;
22256;SDS011;11297;42.686;23.374;2023-02-15T04:09:00;30.30;;;22.93;;
22256;SDS011;11297;42.686;23.374;2023-02-15T04:11:43;30.47;;;21.80;;
22256;SDS011;11297;42.686;23.374;2023-02-15T04:14:10;32.80;;;22.93;;
22256;SDS011;11297;42.686;23.374;2023-02-15T04:16:54;33.90;;;24.33;;
22256;SDS011;11297;42.686;23.374;2023-02-15T04:19:19;33.70;;;23.00;;
22256;SDS011;11297;42.686;23.374;2023-02-15T04:22:03;31.77;;;23.03;;
22256;SDS011;11297;42.686;23.374;2023-02-15T04:24:47;29.33;;;21.67;;
22256;SDS011;11297;42.686;23.374;2023-02-15T04:27:31;31.87;;;22.93;;
22256;SDS011;11297;42.686;23.374;2023-02-15T04:29:56;33.13;;;23.13;;
22256;SDS011;11297;42.686;23.374;2023-02-15T04:32:22;28.87;;;22.03;;
22256;SDS011;11297;42.686;23.374;2023-02-15T04:34:47;30.20;;;22.87;;
22256;SDS011;11297;42.686;23.374;2023-02-15T04:37:12;30.27;;;23.03;;
22256;SDS011;11297;42.686;23.374;2023-02-15T04:39:38;32.97;;;22.13;;
22256;SDS011;11297;42.686;23.374;2023-02-15T04:42:03;30.00;;;22.77;;
22256;SDS011;11297;42.686;23.374;2023-02-15T04:44:29;30.60;;;22.70;;
22256;SDS011;11297;42.686;23.374;2023-02-15T04:46:54;30.47;;;23.17;;
22256;SDS011;11297;42.686;23.374;2023-02-15T04:49:20;36.43;;;23.10;;
22256;SDS011;11297;42.686;23.374;2023-02-15T04:51:45;32.97;;;22.93;;
22256;SDS011;11297;42.686;23.374;2023-02-15T04:54:11;30.07;;;22.40;;
22256;SDS011;11297;42.686;23.374;2023-02-15T04:56:36;30.10;;;21.97;;
22256;SDS011;11297;42.686;23.374;2023-02-15T04:59:03;32.37;;;23.77;;
22256;SDS011;11297;42.686;23.374;2023-02-15T05:01:28;28.87;;;22.33;;
22256;SDS011;11297;42.686;23.374;2023-02-15T05:03:54;29.47;;;22.10;;
22256;SDS011;11297;42.686;23.374;2023-02-15T05:06:19;31.17;;;23.43;;
22256;SDS011;11297;42.686;23.374;2023-02-15T05:08:44;32.67;;;23.60;;
22256;SDS011;11297;42.686;23.374;2023-02-15T05:11:10;29.63;;;22.70;;
22256;SDS011;11297;42.686;23.374;2023-02-15T05:13:35;32.00;;;23.80;;
22256;SDS011;11297;42.686;23.374;2023-02-15T05:16:01;31.23;;;23.50;;
22256;SDS011;11297;42.686;23.374;2023-02-15T05:18:26;30.80;;;23.33;;
22256;SDS011;11297;42.686;23.374;2023-02-15T05:20:51;31.77;;;22.23;;
22256;SDS011;11297;42.686;23.374;2023-02-15T05:23:17;29.30;;;23.13;;
22256;SDS011;11297;42.686;23.374;2023-02-15T05:25:46;30.00;;;21.87;;
22256;SDS011;11297;42.686;23.374;2023-02-15T05:28:34;30.00;;;20.57;;
22256;SDS011;11297;42.686;23.374;2023-02-15T05:31:11;29.20;;;22.33;;
22256;SDS011;11297;42.686;23.374;2023-02-15T05:33:42;30.70;;;22.97;;
22256;SDS011;11297;42.686;23.374;2023-02-15T05:36:08;31.93;;;22.77;;
22256;SDS011;11297;42.686;23.374;2023-02-15T05:38:34;30.67;;;22.63;;
22256;SDS011;11297;42.686;23.374;2023-02-15T05:41:02;35.97;;;23.13;;
22256;SDS011;11297;42.686;23.374;2023-02-15T05:43:28;32.30;;;22.90;;
22256;SDS011;11297;42.686;23.374;2023-02-15T05:45:54;32.57;;;23.27;;
22256;SDS011;11297;42.686;23.374;2023-02-15T05:48:20;33.53;;;23.27;;
22256;SDS011;11297;42.686;23.374;2023-02-15T05:50:56;32.33;;;24.37;;
22256;SDS011;11297;42.686;23.374;2023-02-15T05:53:40;33.07;;;23.53;;
22256;SDS011;11297;42.686;23.374;2023-02-15T05:56:07;30.27;;;20.80;;
22256;SDS011;11297;42.686;23.374;2023-02-15T05:58:34;32.60;;;23.03;;
22256;SDS011;11297;42.686;23.374;2023-02-15T06:01:35;32.00;;;21.73;;
22256;SDS011;11297;42.686;23.374;2023-02-15T06:03:53;29.00;;;21.37;;
22256;SDS011;11297;42.686;23.374;2023-02-15T06:06:20;30.37;;;21.50;;
22256;SDS011;11297;42.686;23.374;2023-02-15T06:08:46;30.17;;;22.20;;
22256;SDS011;11297;42.686;23.374;2023-02-15T06:11:11;28.70;;;21.30;;
22256;SDS011;11297;42.686;23.374;2023-02-15T06:13:37;30.27;;;21.33;;
22256;SDS011;11297;42.686;23.374;2023-02-15T06:16:02;30.63;;;22.17;;
22256;SDS011;11297;42.686;23.374;2023-02-15T06:18:28;28.23;;;21.50;;
22256;SDS011;11297;42.686;23.374;2023-02-15T06:20:53;30.20;;;22.03;;
22256;SDS011;11297;42.686;23.374;2023-02-15T06:23:26;28.13;;;20.80;;
22256;SDS011;11297;42.686;23.374;2023-02-15T06:25:51;30.07;;;21.23;;
22256;SDS011;11297;42.686;23.374;2023-02-15T06:28:17;28.17;;;21.17;;
22256;SDS011;11297;42.686;23.374;2023-02-15T06:30:42;33.93;;;21.90;;
22256;SDS011;11297;42.686;23.374;2023-02-15T06:33:07;27.90;;;20.07;;
22256;SDS011;11297;42.686;23.374;2023-02-15T06:35:33;27.83;;;21.20;;
22256;SDS011;11297;42.686;23.374;2023-02-15T06:37:58;28.50;;;19.63;;
22256;SDS011;11297;42.686;23.374;2023-02-15T06:40:23;28.07;;;20.37;;
22256;SDS011;11297;42.686;23.374;2023-02-15T06:42:49;28.37;;;20.77;;
22256;SDS011;11297;42.686;23.374;2023-02-15T06:45:14;29.67;;;21.47;;
22256;SDS011;11297;42.686;23.374;2023-02-15T06:47:40;25.63;;;20.23;;
22256;SDS011;11297;42.686;23.374;2023-02-15T06:50:05;26.77;;;20.33;;
22256;SDS011;11297;42.686;23.374;2023-02-15T06:52:32;28.17;;;21.17;;
22256;SDS011;11297;42.686;23.374;2023-02-15T06:54:57;27.50;;;21.30;;
22256;SDS011;11297;42.686;23.374;2023-02-15T06:57:22;28.33;;;21.60;;
22256;SDS011;11297;42.686;23.374;2023-02-15T06:59:48;30.27;;;21.33;;
22256;SDS011;11297;42.686;23.374;2023-02-15T07:02:14;31.07;;;21.47;;
22256;SDS011;11297;42.686;23.374;2023-02-15T07:04:39;28.53;;;21.23;;
22256;SDS011;11297;42.686;23.374;2023-02-15T07:07:07;25.50;;;20.37;;
22256;SDS011;11297;42.686;23.374;2023-02-15T07:09:34;28.63;;;21.73;;
22256;SDS011;11297;42.686;23.374;2023-02-15T07:11:59;28.93;;;20.40;;
22256;SDS011;11297;42.686;23.374;2023-02-15T07:14:44;28.63;;;21.23;;
22256;SDS011;11297;42.686;23.374;2023-02-15T07:17:09;27.27;;;20.53;;
22256;SDS011;11297;42.686;23.374;2023-02-15T07:19:34;32.13;;;20.20;;
22256;SDS011;11297;42.686;23.374;2023-02-15T07:22:00;28.00;;;19.70;;
22256;SDS011;11297;42.686;23.374;2023-02-15T07:24:25;25.40;;;18.87;;
22256;SDS011;11297;42.686;23.374;2023-02-15T07:26:51;28.77;;;18.67;;
22256;SDS011;11297;42.686;23.374;2023-02-15T07:29:16;27.60;;;19.57;;
22256;SDS011;11297;42.686;23.374;2023-02-15T07:31:42;25.80;;;19.63;;
22256;SDS011;11297;42.686;23.374;2023-02-15T07:34:10;27.53;;;19.93;;
22256;SDS011;11297;42.686;23.374;2023-02-15T07:36:36;22.80;;;18.60;;
22256;SDS011;11297;42.686;23.374;2023-02-15T07:39:01;26.03;;;17.93;;
22256;SDS011;11297;42.686;23.374;2023-02-15T07:41:26;25.27;;;18.17;;
22256;SDS011;11297;42.686;23.374;2023-02-15T07:43:52;28.00;;;18.37;;
22256;SDS011;11297;42.686;23.374;2023-02-15T07:46:17;24.07;;;18.53;;
22256;SDS011;11297;42.686;23.374;2023-02-15T07:48:44;23.00;;;17.27;;
22256;SDS011;11297;42.686;23.374;2023-02-15T07:51:11;25.17;;;18.43;;
22256;SDS011;11297;42.686;23.374;2023-02-15T07:53:37;24.40;;;17.53;;
22256;SDS011;11297;42.686;23.374;2023-02-15T07:56:04;23.27;;;17.10;;
22256;SDS011;11297;42.686;23.374;2023-02-15T07:58:32;24.43;;;18.93;;
22256;SDS011;11297;42.686;23.374;2023-02-15T08:01:27;23.77;;;18.70;;
22256;SDS011;11297;42.686;23.374;2023-02-15T08:03:55;28.47;;;18.17;;
22256;SDS011;11297;42.686;23.374;2023-02-15T08:06:21;24.70;;;18.80;;
22256;SDS011;11297;42.686;23.374;2023-02-15T08:08:48;27.73;;;19.60;;
22256;SDS011;11297;42.686;23.374;2023-02-15T08:13:52;25.23;;;17.67;;
22256;SDS011;11297;42.686;23.374;2023-02-15T08:18:47;26.67;;;19.83;;
22256;SDS011;11297;42.686;23.374;2023-02-15T08:21:12;28.63;;;20.23;;
22256;SDS011;11297;42.686;23.374;2023-02-15T08:23:38;27.97;;;19.87;;
22256;SDS011;11297;42.686;23.374;2023-02-15T08:26:03;22.67;;;16.57;;
22256;SDS011;11297;42.686;23.374;2023-02-15T08:28:29;26.53;;;18.73;;
22256;SDS011;11297;42.686;23.374;2023-02-15T08:30:56;24.70;;;18.40;;
22256;SDS011;11297;42.686;23.374;2023-02-15T08:33:29;25.13;;;17.37;;
22256;SDS011;11297;42.686;23.374;2023-02-15T08:35:54;22.50;;;18.27;;
22256;SDS011;11297;42.686;23.374;2023-02-15T08:38:20;24.90;;;18.53;;
22256;SDS011;11297;42.686;23.374;2023-02-15T08:40:45;26.27;;;19.70;;
22256;SDS011;11297;42.686;23.374;2023-02-15T08:43:11;29.40;;;21.33;;
22256;SDS011;11297;42.686;23.374;2023-02-15T08:45:36;30.77;;;24.17;;
22256;SDS011;11297;42.686;23.374;2023-02-15T08:48:01;31.10;;;21.57;;
22256;SDS011;11297;42.686;23.374;2023-02-15T08:50:27;31.97;;;21.30;;
22256;SDS011;11297;42.686;23.374;2023-02-15T08:52:53;27.87;;;21.13;;
22256;SDS011;11297;42.686;23.374;2023-02-15T08:55:20;27.90;;;20.97;;
22256;SDS011;11297;42.686;23.374;2023-02-15T08:57:46;24.00;;;17.87;;
22256;SDS011;11297;42.686;23.374;2023-02-15T09:00:12;21.27;;;16.43;;
22256;SDS011;11297;42.686;23.374;2023-02-15T09:02:37;25.23;;;18.63;;
22256;SDS011;11297;42.686;23.374;2023-02-15T09:05:03;25.17;;;16.53;;
22256;SDS011;11297;42.686;23.374;2023-02-15T09:07:28;21.43;;;16.07;;
22256;SDS011;11297;42.686;23.374;2023-02-15T09:09:54;21.77;;;16.77;;
22256;SDS011;11297;42.686;23.374;2023-02-15T09:12:19;20.43;;;15.47;;
22256;SDS011;11297;42.686;23.374;2023-02-15T09:14:45;25.37;;;17.17;;
22256;SDS011;11297;42.686;23.374;2023-02-15T09:17:10;24.20;;;16.60;;
22256;SDS011;11297;42.686;23.374;2023-02-15T09:19:35;22.03;;;16.37;;
22256;SDS011;11297;42.686;23.374;2023-02-15T09:22:01;20.97;;;16.00;;
22256;SDS011;11297;42.686;23.374;2023-02-15T09:24:26;20.40;;;16.17;;
22256;SDS011;11297;42.686;23.374;2023-02-15T09:26:52;23.87;;;16.53;;
22256;SDS011;11297;42.686;23.374;2023-02-15T09:29:18;19.67;;;16.40;;
22256;SDS011;11297;42.686;23.374;2023-02-15T09:31:45;21.33;;;15.13;;
22256;SDS011;11297;42.686;23.374;2023-02-15T09:34:14;19.73;;;15.70;;
22256;SDS011;11297;42.686;23.374;2023-02-15T09:36:43;19.97;;;15.37;;
22256;SDS011;11297;42.686;23.374;2023-02-15T09:39:19;19.63;;;14.93;;
22256;SDS011;11297;42.686;23.374;2023-02-15T10:03:38;17.70;;;14.30;;
22256;SDS011;11297;42.686;23.374;2023-02-15T10:06:18;21.63;;;17.30;;
22256;SDS011;11297;42.686;23.374;2023-02-15T10:26:36;22.90;;;16.93;;
22256;SDS011;11297;42.686;23.374;2023-02-15T10:34:52;18.50;;;15.63;;
22256;SDS011;11297;42.686;23.374;2023-02-15T10:43:37;21.20;;;16.70;;
22256;SDS011;11297;42.686;23.374;2023-02-15T10:57:05;22.47;;;18.57;;
22256;SDS011;11297;42.686;23.374;2023-02-15T10:59:52;21.40;;;16.07;;
22256;SDS011;11297;42.686;23.374;2023-02-15T11:05:16;26.57;;;19.40;;
22256;SDS011;11297;42.686;23.374;2023-02-15T11:07:46;24.63;;;18.73;;
22256;SDS011;11297;42.686;23.374;2023-02-15T11:13:06;20.97;;;16.27;;
22256;SDS011;11297;42.686;23.374;2023-02-15T11:15:41;21.20;;;17.63;;
22256;SDS011;11297;42.686;23.374;2023-02-15T11:18:14;20.20;;;16.60;;
22256;SDS011;11297;42.686;23.374;2023-02-15T11:23:18;18.33;;;16.30;;
22256;SDS011;11297;42.686;23.374;2023-02-15T11:25:46;17.43;;;14.93;;
22256;SDS011;11297;42.686;23.374;2023-02-15T11:28:22;19.93;;;17.70;;
22256;SDS011;11297;42.686;23.374;2023-02-15T11:30:56;18.07;;;16.13;;
22256;SDS011;11297;42.686;23.374;2023-02-15T11:35:57;17.50;;;14.03;;
22256;SDS011;11297;42.686;23.374;2023-02-15T11:38:44;18.77;;;15.43;;
22256;SDS011;11297;42.686;23.374;2023-02-15T11:41:15;16.90;;;14.57;;
22256;SDS011;11297;42.686;23.374;2023-02-15T11:44:01;17.27;;;15.47;;
22256;SDS011;11297;42.686;23.374;2023-02-15T11:46:36;18.33;;;15.07;;
22256;SDS011;11297;42.686;23.374;2023-02-15T11:49:20;21.67;;;17.70;;
22256;SDS011;11297;42.686;23.374;2023-02-15T11:51:46;17.73;;;15.03;;
22256;SDS011;11297;42.686;23.374;2023-02-15T11:54:12;17.73;;;15.93;;
22256;SDS011;11297;42.686;23.374;2023-02-15T11:56:37;15.57;;;13.97;;
22256;SDS011;11297;42.686;23.374;2023-02-15T11:59:09;15.30;;;13.70;;
22256;SDS011;11297;42.686;23.374;2023-02-15T12:01:39;14.93;;;13.43;;
22256;SDS011;11297;42.686;23.374;2023-02-15T12:06:48;19.80;;;17.10;;
22256;SDS011;11297;42.686;23.374;2023-02-15T12:09:21;21.00;;;17.77;;
22256;SDS011;11297;42.686;23.374;2023-02-15T12:11:50;19.80;;;17.70;;
22256;SDS011;11297;42.686;23.374;2023-02-15T12:14:15;22.60;;;19.47;;
22256;SDS011;11297;42.686;23.374;2023-02-15T12:16:51;23.60;;;19.70;;
22256;SDS011;11297;42.686;23.374;2023-02-15T12:19:28;22.70;;;19.40;;
22256;SDS011;11297;42.686;23.374;2023-02-15T12:21:55;22.93;;;18.73;;
22256;SDS011;11297;42.686;23.374;2023-02-15T12:24:23;23.27;;;19.43;;
22256;SDS011;11297;42.686;23.374;2023-02-15T12:29:30;25.13;;;18.70;;
22256;SDS011;11297;42.686;23.374;2023-02-15T12:32:04;22.40;;;18.87;;
22256;SDS011;11297;42.686;23.374;2023-02-15T12:34:36;26.50;;;19.53;;
22256;SDS011;11297;42.686;23.374;2023-02-15T12:37:15;22.60;;;18.80;;
22256;SDS011;11297;42.686;23.374;2023-02-15T12:39:57;24.87;;;19.17;;
22256;SDS011;11297;42.686;23.374;2023-02-15T12:42:24;23.67;;;18.93;;
22256;SDS011;11297;42.686;23.374;2023-02-15T12:45:01;24.10;;;19.43;;
22256;SDS011;11297;42.686;23.374;2023-02-15T12:47:29;23.27;;;18.37;;
22256;SDS011;11297;42.686;23.374;2023-02-15T12:50:06;25.97;;;19.23;;
22256;SDS011;11297;42.686;23.374;2023-02-15T12:52:45;21.33;;;15.03;;
22256;SDS011;11297;42.686;23.374;2023-02-15T12:55:23;24.90;;;20.57;;
22256;SDS011;11297;42.686;23.374;2023-02-15T12:58:04;24.80;;;18.50;;
22256;SDS011;11297;42.686;23.374;2023-02-15T13:00:40;21.33;;;17.27;;
22256;SDS011;11297;42.686;23.374;2023-02-15T13:03:14;24.47;;;17.73;;
22256;SDS011;11297;42.686;23.374;2023-02-15T13:05:46;26.40;;;19.87;;
22256;SDS011;11297;42.686;23.374;2023-02-15T13:08:17;24.90;;;18.87;;
22256;SDS011;11297;42.686;23.374;2023-02-15T13:11:04;21.97;;;17.77;;
22256;SDS011;11297;42.686;23.374;2023-02-15T13:13:47;24.03;;;18.90;;
22256;SDS011;11297;42.686;23.374;2023-02-15T13:16:17;24.00;;;18.20;;
22256;SDS011;11297;42.686;23.374;2023-02-15T13:18:50;23.57;;;17.30;;
22256;SDS011;11297;42.686;23.374;2023-02-15T13:23:52;22.33;;;16.97;;
22256;SDS011;11297;42.686;23.374;2023-02-15T13:26:22;27.90;;;19.10;;
22256;SDS011;11297;42.686;23.374;2023-02-15T13:28:53;25.07;;;18.87;;
22256;SDS011;11297;42.686;23.374;2023-02-15T13:31:21;25.97;;;19.00;;
22256;SDS011;11297;42.686;23.374;2023-02-15T13:34:11;23.33;;;18.87;;
22256;SDS011;11297;42.686;23.374;2023-02-15T13:47:06;21.60;;;17.50;;
22256;SDS011;11297;42.686;23.374;2023-02-15T13:52:46;27.97;;;19.37;;
22256;SDS011;11297;42.686;23.374;2023-02-15T13:55:36;24.27;;;19.23;;
22256;SDS011;11297;42.686;23.374;2023-02-15T14:09:52;24.70;;;19.53;;
22256;SDS011;11297;42.686;23.374;2023-02-15T14:12:27;25.33;;;18.70;;
22256;SDS011;11297;42.686;23.374;2023-02-15T14:31:52;27.80;;;21.07;;
22256;SDS011;11297;42.686;23.374;2023-02-15T14:37:08;23.07;;;19.47;;
22256;SDS011;11297;42.686;23.374;2023-02-15T14:48:25;26.17;;;20.73;;
22256;SDS011;11297;42.686;23.374;2023-02-15T14:50:55;27.80;;;20.50;;
22256;SDS011;11297;42.686;23.374;2023-02-15T14:58:30;28.97;;;20.97;;
22256;SDS011;11297;42.686;23.374;2023-02-15T15:00:55;26.83;;;21.40;;
22256;SDS011;11297;42.686;23.374;2023-02-15T15:03:31;27.40;;;20.50;;
22256;SDS011;11297;42.686;23.374;2023-02-15T15:05:57;25.93;;;19.07;;
22256;SDS011;11297;42.686;23.374;2023-02-15T15:08:28;25.87;;;19.90;;
22256;SDS011;11297;42.686;23.374;2023-02-15T15:10:59;26.17;;;20.77;;
22256;SDS011;11297;42.686;23.374;2023-02-15T15:13:59;27.77;;;20.97;;
22256;SDS011;11297;42.686;23.374;2023-02-15T15:18:57;23.70;;;18.50;;
22256;SDS011;11297;42.686;23.374;2023-02-15T15:30:02;27.57;;;20.07;;
22256;SDS011;11297;42.686;23.374;2023-02-15T15:41:16;31.63;;;21.40;;
22256;SDS011;11297;42.686;23.374;2023-02-15T15:49:47;27.13;;;19.93;;
22256;SDS011;11297;42.686;23.374;2023-02-15T15:52:20;28.40;;;21.50;;
22256;SDS011;11297;42.686;23.374;2023-02-15T15:54:48;28.50;;;20.50;;
22256;SDS011;11297;42.686;23.374;2023-02-15T15:59:52;32.50;;;21.70;;
22256;SDS011;11297;42.686;23.374;2023-02-15T16:02:19;27.13;;;21.07;;
22256;SDS011;11297;42.686;23.374;2023-02-15T16:04:48;24.80;;;20.17;;
22256;SDS011;11297;42.686;23.374;2023-02-15T16:09:59;28.27;;;21.70;;
22256;SDS011;11297;42.686;23.374;2023-02-15T16:12:30;25.83;;;20.53;;
22256;SDS011;11297;42.686;23.374;2023-02-15T16:14:58;29.80;;;21.77;;
22256;SDS011;11297;42.686;23.374;2023-02-15T16:17:44;31.43;;;22.63;;
22256;SDS011;11297;42.686;23.374;2023-02-15T16:20:17;29.17;;;21.70;;
22256;SDS011;11297;42.686;23.374;2023-02-15T16:22:47;28.20;;;21.53;;
22256;SDS011;11297;42.686;23.374;2023-02-15T16:28:05;28.70;;;21.80;;
22256;SDS011;11297;42.686;23.374;2023-02-15T16:30:33;30.87;;;22.07;;
22256;SDS011;11297;42.686;23.374;2023-02-15T16:35:37;29.57;;;22.13;;
22256;SDS011;11297;42.686;23.374;2023-02-15T16:38:05;27.77;;;21.70;;
22256;SDS011;11297;42.686;23.374;2023-02-15T16:40:46;27.40;;;21.37;;
22256;SDS011;11297;42.686;23.374;2023-02-15T16:43:18;36.20;;;23.37;;
22256;SDS011;11297;42.686;23.374;2023-02-15T16:45:48;28.40;;;21.60;;
22256;SDS011;11297;42.686;23.374;2023-02-15T16:48:19;27.40;;;21.33;;
22256;SDS011;11297;42.686;23.374;2023-02-15T16:50:52;30.80;;;21.33;;
22256;SDS011;11297;42.686;23.374;2023-02-15T16:53:24;29.50;;;22.53;;
22256;SDS011;11297;42.686;23.374;2023-02-15T16:55:57;29.17;;;21.70;;
22256;SDS011;11297;42.686;23.374;2023-02-15T16:58:27;30.50;;;22.43;;
22256;SDS011;11297;42.686;23.374;2023-02-15T17:00:57;31.70;;;21.93;;
22256;SDS011;11297;42.686;23.374;2023-02-15T17:03:24;31.83;;;21.50;;
22256;SDS011;11297;42.686;23.374;2023-02-15T17:05:57;28.30;;;22.33;;
22256;SDS011;11297;42.686;23.374;2023-02-15T17:13:25;32.13;;;22.13;;
22256;SDS011;11297;42.686;23.374;2023-02-15T17:18:27;32.23;;;23.77;;
22256;SDS011;11297;42.686;23.374;2023-02-15T17:21:24;30.10;;;23.13;;
22256;SDS011;11297;42.686;23.374;2023-02-15T17:23:59;31.17;;;23.10;;
22256;SDS011;11297;42.686;23.374;2023-02-15T17:26:30;33.57;;;22.80;;
22256;SDS011;11297;42.686;23.374;2023-02-15T17:29:09;31.73;;;22.60;;
22256;SDS011;11297;42.686;23.374;2023-02-15T17:31:44;33.17;;;23.80;;
22256;SDS011;11297;42.686;23.374;2023-02-15T17:34:40;30.53;;;23.63;;
22256;SDS011;11297;42.686;23.374;2023-02-15T17:37:14;31.80;;;24.40;;
22256;SDS011;11297;42.686;23.374;2023-02-15T17:39:50;32.70;;;24.20;;
22256;SDS011;11297;42.686;23.374;2023-02-15T17:42:15;32.37;;;23.47;;
22256;SDS011;11297;42.686;23.374;2023-02-15T17:44:41;33.37;;;24.80;;
22256;SDS011;11297;42.686;23.374;2023-02-15T17:47:06;33.50;;;24.73;;
22256;SDS011;11297;42.686;23.374;2023-02-15T17:49:31;30.07;;;23.30;;
22256;SDS011;11297;42.686;23.374;2023-02-15T17:52:02;34.97;;;24.00;;
22256;SDS011;11297;42.686;23.374;2023-02-15T17:54:28;30.30;;;22.30;;
22256;SDS011;11297;42.686;23.374;2023-02-15T17:57:13;33.53;;;23.27;;
22256;SDS011;11297;42.686;23.374;2023-02-15T17:59:40;32.30;;;24.00;;
22256;SDS011;11297;42.686;23.374;2023-02-15T18:02:24;30.03;;;22.67;;
22256;SDS011;11297;42.686;23.374;2023-02-15T18:05:13;31.13;;;23.87;;